Time;durP1;ratioP1;P1;durP2;ratioP2;P2;SDS_P1;SDS_P2;PMS_P1;PMS_P2;Temp;Humidity;BMP_temperature;BMP_pressure;BME280_temperature;BME280_humidity;BME280_pressure;Samples;Min_cycle;Max_cycle;Signal;HPM_P1;HPM_P2
2024/02/09 00:00:22;;;;;;;0.80;0.40;;;11.70;1.00;;;;;;5119379;28;20485;-60
2024/02/09 00:02:49;;;;;;;2.60;0.50;;;11.80;1.00;;;;;;5119335;28;20508;-62
2024/02/09 00:05:17;;;;;;;2.40;0.60;;;11.70;1.00;;;;;;5119892;28;20575;-60
2024/02/09 00:07:48;;;;;;;2.40;0.50;;;11.70;1.00;;;;;;5119693;28;20904;-61
2024/02/09 00:10:18;;;;;;;3.42;0.57;;;11.60;1.00;;;;;;5120023;28;20466;-61
2024/02/09 00:12:45;;;;;;;1.20;0.50;;;11.60;1.00;;;;;;5120373;28;20813;-60
2024/02/09 00:15:12;;;;;;;1.60;0.47;;;11.60;1.00;;;;;;5119410;28;20492;-60
2024/02/09 00:17:39;;;;;;;1.80;0.50;;;11.60;1.00;;;;;;5119296;28;20481;-61
2024/02/09 00:20:08;;;;;;;2.20;0.50;;;11.60;1.00;;;;;;5118716;28;20526;-60
2024/02/09 00:22:36;;;;;;;1.00;0.47;;;11.60;1.00;;;;;;5118874;28;20423;-60
2024/02/09 00:25:08;;;;;;;1.08;0.50;;;11.60;1.00;;;;;;5118632;28;20477;-61
2024/02/09 00:27:35;;;;;;;3.20;0.60;;;11.60;1.00;;;;;;5116951;27;20423;-60
2024/02/09 00:30:04;;;;;;;1.30;0.50;;;11.60;1.00;;;;;;5118386;28;20447;-61
2024/02/09 00:32:31;;;;;;;2.13;0.50;;;11.60;1.00;;;;;;5116374;28;20444;-61
2024/02/09 00:34:58;;;;;;;1.30;0.60;;;11.60;1.00;;;;;;5117875;28;20528;-61
2024/02/09 00:37:26;;;;;;;6.05;0.63;;;11.60;1.00;;;;;;5115956;28;20861;-61
2024/02/09 00:39:55;;;;;;;1.50;0.50;;;11.60;1.00;;;;;;5116787;28;20435;-61
2024/02/09 00:42:23;;;;;;;3.77;0.60;;;11.70;1.00;;;;;;5117457;28;20502;-59
2024/02/09 00:44:50;;;;;;;2.45;0.50;;;11.70;1.00;;;;;;5114923;28;20416;-59
2024/02/09 00:47:17;;;;;;;2.70;0.40;;;11.70;1.00;;;;;;5118169;28;20502;-59
2024/02/09 00:49:44;;;;;;;2.70;0.60;;;11.60;1.00;;;;;;5117464;28;20428;-59
2024/02/09 00:52:11;;;;;;;1.40;0.50;;;11.60;1.00;;;;;;5115667;28;20420;-61
2024/02/09 00:54:39;;;;;;;1.50;0.50;;;11.50;1.00;;;;;;5117739;28;20420;-60
2024/02/09 00:57:07;;;;;;;2.40;0.60;;;11.50;1.00;;;;;;5117836;28;20481;-60
2024/02/09 00:59:36;;;;;;;3.20;0.50;;;11.40;1.00;;;;;;5117716;28;20417;-60
2024/02/09 01:02:03;;;;;;;2.50;0.50;;;11.40;1.00;;;;;;5117493;27;20482;-60
2024/02/09 01:04:30;;;;;;;4.40;0.80;;;11.30;1.00;;;;;;5116927;28;20456;-60
2024/02/09 01:06:57;;;;;;;1.80;0.68;;;11.30;1.00;;;;;;5116932;28;20535;-61
2024/02/09 01:09:24;;;;;;;3.83;0.60;;;11.40;1.00;;;;;;5117592;28;20458;-61
2024/02/09 01:11:51;;;;;;;1.20;0.50;;;11.50;1.00;;;;;;5115251;28;20447;-60
2024/02/09 02:47:03;;;;;;;2.80;0.40;;;10.80;99.90;;;;;;5115784;28;20916;-60
2024/02/09 03:05:57;;;;;;;2.67;0.50;;;10.50;99.90;;;;;;5113481;28;20458;-60
2024/02/09 03:08:25;;;;;;;1.80;0.40;;;10.50;99.90;;;;;;5115205;28;20448;-60
2024/02/09 03:10:52;;;;;;;2.30;0.47;;;10.50;99.90;;;;;;5112702;28;20420;-59
2024/02/09 03:13:21;;;;;;;1.70;0.50;;;10.50;99.90;;;;;;5115439;28;20456;-59
2024/02/09 03:15:48;;;;;;;1.20;0.50;;;10.50;99.90;;;;;;5115153;28;20439;-59
2024/02/09 03:18:17;;;;;;;2.08;0.40;;;10.50;99.90;;;;;;5115217;28;20452;-59
2024/02/09 03:20:44;;;;;;;2.00;0.50;;;10.50;99.90;;;;;;5114909;28;20698;-59
2024/02/09 03:23:12;;;;;;;2.40;0.50;;;10.50;99.90;;;;;;5112730;28;20439;-59
2024/02/09 03:25:40;;;;;;;1.88;0.50;;;10.50;99.90;;;;;;5114933;28;20443;-59
2024/02/09 03:28:08;;;;;;;2.67;0.50;;;10.40;99.90;;;;;;5116152;28;20428;-59
2024/02/09 03:30:35;;;;;;;1.77;0.50;;;10.40;99.90;;;;;;5114774;28;20443;-59
2024/02/09 03:33:02;;;;;;;1.13;0.50;;;10.40;99.90;;;;;;5115602;28;20432;-59
2024/02/09 03:35:31;;;;;;;2.65;0.50;;;10.50;99.90;;;;;;5114644;28;20579;-59
2024/02/09 03:37:58;;;;;;;2.80;0.50;;;10.50;99.90;;;;;;5115007;28;20439;-59
2024/02/09 03:40:25;;;;;;;2.15;0.50;;;10.50;99.90;;;;;;5114662;28;20898;-58
2024/02/09 03:42:53;;;;;;;1.40;0.40;;;10.40;99.90;;;;;;5112667;28;20481;-59
2024/02/09 03:45:20;;;;;;;1.10;0.50;;;10.40;99.90;;;;;;5114757;28;20719;-59
2024/02/09 03:47:47;;;;;;;2.00;0.40;;;10.40;99.90;;;;;;5115313;28;20442;-60
2024/02/09 03:50:15;;;;;;;2.42;0.60;;;10.40;99.90;;;;;;5114716;28;20420;-60
2024/02/09 03:52:44;;;;;;;2.35;0.50;;;10.40;99.90;;;;;;5115045;28;20504;-59
2024/02/09 03:55:16;;;;;;;0.80;0.40;;;10.40;99.90;;;;;;5114896;28;20762;-59
2024/02/09 03:57:44;;;;;;;2.60;0.50;;;10.40;99.90;;;;;;5115549;28;20511;-59
2024/02/09 04:00:15;;;;;;;1.30;0.40;;;10.30;99.90;;;;;;5111927;28;20424;-58
2024/02/09 04:02:43;;;;;;;1.10;0.50;;;10.30;99.90;;;;;;5114279;28;20499;-59
2024/02/09 04:05:10;;;;;;;2.10;0.50;;;10.30;99.90;;;;;;5114922;28;20412;-59
2024/02/09 04:07:37;;;;;;;1.17;0.35;;;10.20;99.90;;;;;;5114633;28;20835;-60
2024/02/09 04:10:04;;;;;;;1.30;0.40;;;10.20;99.90;;;;;;5113832;28;20451;-59
2024/02/09 04:12:31;;;;;;;2.25;0.47;;;10.20;99.90;;;;;;5115234;28;20747;-59
2024/02/09 04:14:58;;;;;;;1.40;0.45;;;10.30;99.90;;;;;;5114666;28;20456;-59
2024/02/09 04:17:28;;;;;;;1.23;0.50;;;10.30;99.90;;;;;;5114115;28;20906;-59
2024/02/09 04:19:55;;;;;;;1.50;0.40;;;10.30;99.90;;;;;;5112788;28;20725;-60
2024/02/09 04:22:22;;;;;;;1.30;0.40;;;10.30;99.90;;;;;;5114319;28;20420;-59
2024/02/09 04:24:50;;;;;;;1.37;0.40;;;10.30;99.90;;;;;;5114096;28;20522;-59
2024/02/09 04:27:20;;;;;;;1.02;0.40;;;10.30;99.90;;;;;;5113901;28;20478;-59
2024/02/09 04:29:47;;;;;;;1.45;0.40;;;10.30;99.90;;;;;;5113660;28;20440;-59
2024/02/09 04:32:14;;;;;;;1.00;0.40;;;10.30;99.90;;;;;;5111248;28;20426;-63
2024/02/09 04:34:42;;;;;;;1.40;0.40;;;10.30;99.90;;;;;;5113942;28;20520;-59
2024/02/09 04:37:09;;;;;;;1.10;0.38;;;10.30;99.90;;;;;;5113182;28;20910;-59
2024/02/09 04:39:36;;;;;;;1.70;0.40;;;10.30;99.90;;;;;;5113222;28;20477;-60
2024/02/09 04:42:03;;;;;;;3.25;0.30;;;10.30;99.90;;;;;;5116554;28;20444;-59
2024/02/09 04:44:33;;;;;;;2.38;0.30;;;10.30;99.90;;;;;;5117841;27;20439;-59
2024/02/09 04:47:00;;;;;;;1.00;0.40;;;10.30;99.90;;;;;;5117970;28;20427;-59
2024/02/09 04:49:26;;;;;;;0.68;0.40;;;10.40;99.90;;;;;;5118177;28;20509;-59
2024/02/09 04:51:55;;;;;;;2.33;0.38;;;10.40;99.90;;;;;;5117766;28;21087;-59
2024/02/09 04:54:22;;;;;;;1.10;0.40;;;10.50;99.90;;;;;;5119263;28;20517;-59
2024/02/09 04:56:49;;;;;;;1.30;0.30;;;10.50;99.90;;;;;;5117305;28;20455;-59
2024/02/09 04:59:16;;;;;;;0.80;0.30;;;10.60;99.90;;;;;;5117552;28;20489;-59
2024/02/09 05:01:43;;;;;;;0.60;0.30;;;10.60;99.90;;;;;;5117954;28;20420;-59
2024/02/09 05:04:11;;;;;;;1.60;0.30;;;10.60;99.90;;;;;;5117496;28;20425;-59
2024/02/09 05:06:39;;;;;;;1.10;0.40;;;10.70;99.90;;;;;;5117621;28;20416;-59
2024/02/09 05:09:09;;;;;;;1.70;0.40;;;10.70;99.90;;;;;;5117864;28;20428;-59
2024/02/09 05:11:37;;;;;;;0.60;0.30;;;10.80;99.90;;;;;;5115073;28;20809;-59
2024/02/09 05:14:05;;;;;;;1.57;0.40;;;10.80;99.90;;;;;;5118842;27;20667;-59
2024/02/09 05:16:32;;;;;;;3.80;0.40;;;10.70;99.90;;;;;;5119758;27;20837;-59
2024/02/09 05:19:01;;;;;;;1.00;0.30;;;10.80;99.90;;;;;;5117565;28;20829;-59
2024/02/09 05:21:28;;;;;;;2.10;0.40;;;10.80;99.90;;;;;;5117070;28;20428;-60
2024/02/09 05:23:55;;;;;;;1.00;0.30;;;10.80;99.90;;;;;;5117039;28;20416;-60
2024/02/09 05:26:23;;;;;;;0.93;0.30;;;10.90;99.90;;;;;;5117477;28;20416;-59
2024/02/09 05:28:51;;;;;;;0.80;0.33;;;10.80;99.90;;;;;;5117223;28;20459;-59
2024/02/09 05:31:23;;;;;;;0.77;0.30;;;10.80;99.90;;;;;;5118009;27;20432;-58
2024/02/09 05:33:51;;;;;;;0.70;0.25;;;10.80;99.90;;;;;;5117329;28;20436;-59
2024/02/09 05:36:21;;;;;;;1.58;0.30;;;10.80;99.90;;;;;;5116249;28;20432;-59
2024/02/09 05:38:49;;;;;;;1.00;0.20;;;10.80;99.90;;;;;;5116595;28;20439;-58
2024/02/09 05:41:16;;;;;;;0.50;0.22;;;10.80;99.90;;;;;;5116124;28;20898;-59
2024/02/09 05:43:47;;;;;;;0.70;0.20;;;10.90;99.90;;;;;;5116470;28;20438;-59
2024/02/09 05:46:14;;;;;;;1.20;0.30;;;11.00;99.90;;;;;;5117235;28;20814;-59
2024/02/09 05:48:43;;;;;;;0.60;0.20;;;11.00;99.90;;;;;;5117036;28;20419;-59
2024/02/09 05:51:12;;;;;;;0.50;0.30;;;11.00;99.90;;;;;;5116440;28;20448;-58
2024/02/09 05:53:39;;;;;;;0.60;0.20;;;11.00;99.90;;;;;;5116025;28;20818;-59
2024/02/09 05:56:13;;;;;;;0.47;0.28;;;11.00;99.90;;;;;;5116709;28;20423;-59
2024/02/09 05:58:45;;;;;;;1.17;0.20;;;11.00;99.90;;;;;;5114783;28;20740;-59
2024/02/09 06:01:11;;;;;;;1.00;0.30;;;11.00;99.90;;;;;;5117396;28;20489;-59
2024/02/09 06:03:39;;;;;;;2.10;0.30;;;11.00;99.90;;;;;;5116777;28;20520;-59
2024/02/09 06:06:10;;;;;;;0.50;0.30;;;11.10;99.90;;;;;;5116206;28;20497;-60
2024/02/09 06:08:37;;;;;;;0.70;0.30;;;11.10;99.90;;;;;;5113367;28;21150;-59
2024/02/09 06:11:04;;;;;;;0.40;0.30;;;11.00;99.90;;;;;;5116212;28;20583;-59
2024/02/09 06:13:31;;;;;;;0.45;0.20;;;11.00;99.90;;;;;;5118054;27;20428;-59
2024/02/09 06:16:01;;;;;;;0.50;0.20;;;11.00;99.90;;;;;;5115211;28;20473;-60
2024/02/09 06:18:28;;;;;;;0.50;0.30;;;11.00;99.90;;;;;;5116094;28;20531;-59
2024/02/09 06:20:58;;;;;;;0.70;0.20;;;11.10;99.90;;;;;;5114188;28;20491;-59
2024/02/09 06:23:26;;;;;;;1.10;0.30;;;11.00;99.90;;;;;;5115771;28;20858;-59
2024/02/09 06:25:53;;;;;;;0.40;0.20;;;11.00;99.90;;;;;;5115733;28;20903;-59
2024/02/09 06:28:20;;;;;;;0.70;0.30;;;11.10;99.90;;;;;;5114278;28;20764;-59
2024/02/09 06:30:47;;;;;;;0.90;0.20;;;11.10;99.90;;;;;;5113346;28;20487;-59
2024/02/09 06:33:16;;;;;;;0.60;0.30;;;11.10;99.90;;;;;;5114282;28;20504;-59
2024/02/09 06:35:44;;;;;;;0.40;0.20;;;11.20;99.90;;;;;;5116063;28;20503;-59
2024/02/09 06:38:12;;;;;;;0.50;0.30;;;11.20;99.90;;;;;;5114946;28;20435;-58
2024/02/09 06:40:39;;;;;;;2.20;0.30;;;11.10;99.90;;;;;;5114428;28;20428;-57
2024/02/09 06:43:06;;;;;;;0.55;0.20;;;11.20;99.90;;;;;;5115329;28;20830;-58
2024/02/09 06:45:35;;;;;;;0.90;0.20;;;11.10;99.90;;;;;;5112931;28;20461;-59
2024/02/09 06:48:03;;;;;;;0.50;0.20;;;11.10;99.90;;;;;;5114209;28;20770;-59
2024/02/09 06:50:34;;;;;;;0.30;0.20;;;11.10;99.90;;;;;;5115239;28;20490;-59
2024/02/09 06:53:01;;;;;;;1.00;0.30;;;11.10;99.90;;;;;;5114933;28;20419;-59
2024/02/09 06:55:28;;;;;;;0.40;0.20;;;11.00;99.90;;;;;;5114424;28;20428;-59
2024/02/09 06:57:55;;;;;;;0.50;0.20;;;11.00;99.90;;;;;;5114439;28;20471;-59
2024/02/09 07:00:25;;;;;;;0.50;0.20;;;11.10;99.90;;;;;;5114275;28;20798;-60
2024/02/09 07:02:53;;;;;;;0.50;0.20;;;11.20;99.90;;;;;;5113891;28;20419;-59
2024/02/09 07:05:20;;;;;;;0.50;0.20;;;11.20;99.90;;;;;;5114237;28;20502;-59
2024/02/09 07:07:49;;;;;;;0.60;0.20;;;11.30;99.90;;;;;;5113838;28;20754;-59
2024/02/09 07:10:22;;;;;;;1.10;0.30;;;11.20;99.90;;;;;;5114811;28;20432;-59
2024/02/09 07:12:50;;;;;;;0.80;0.20;;;11.20;99.90;;;;;;5115646;28;20452;-59
2024/02/09 07:15:17;;;;;;;0.40;0.20;;;11.20;99.90;;;;;;5107077;28;20776;-59
2024/02/09 07:17:44;;;;;;;0.40;0.20;;;11.10;99.90;;;;;;5115718;28;20438;-59
2024/02/09 07:20:16;;;;;;;0.80;0.20;;;11.10;99.90;;;;;;5114033;28;20447;-59
2024/02/09 07:22:44;;;;;;;0.70;0.20;;;11.10;99.90;;;;;;5103344;28;20763;-58
2024/02/09 07:25:12;;;;;;;0.40;0.20;;;11.10;99.90;;;;;;5113443;28;20455;-59
2024/02/09 07:27:40;;;;;;;0.50;0.20;;;11.00;99.90;;;;;;5103342;28;20514;-58
2024/02/09 07:30:08;;;;;;;0.40;0.20;;;11.00;99.90;;;;;;5114724;28;20475;-59
2024/02/09 07:32:35;;;;;;;0.63;0.20;;;11.00;99.90;;;;;;5114304;28;20523;-59
2024/02/09 07:35:04;;;;;;;0.60;0.30;;;11.00;99.90;;;;;;5114956;28;20447;-59
2024/02/09 07:37:31;;;;;;;0.90;0.30;;;11.00;99.90;;;;;;5115987;28;20468;-59
2024/02/09 07:40:02;;;;;;;0.50;0.20;;;11.00;99.90;;;;;;5114246;28;20463;-60
2024/02/09 07:42:31;;;;;;;0.70;0.20;;;11.00;99.90;;;;;;5110752;28;20442;-59
2024/02/09 07:44:57;;;;;;;1.10;0.20;;;11.10;99.90;;;;;;5104008;28;20429;-59
2024/02/09 07:47:24;;;;;;;0.70;0.28;;;11.20;99.90;;;;;;5112239;28;20814;-59
2024/02/09 07:49:51;;;;;;;0.60;0.30;;;11.20;99.90;;;;;;5115132;28;20459;-59
2024/02/09 07:52:18;;;;;;;0.50;0.30;;;11.20;99.90;;;;;;5111148;28;20837;-59
2024/02/09 07:54:45;;;;;;;0.50;0.30;;;11.30;99.90;;;;;;5114015;28;20523;-61
2024/02/09 07:57:13;;;;;;;0.40;0.20;;;11.30;99.90;;;;;;5114992;28;20466;-60
2024/02/09 07:59:43;;;;;;;0.57;0.30;;;11.30;99.90;;;;;;5115384;28;20428;-60
2024/02/09 08:02:11;;;;;;;1.10;0.30;;;11.40;99.90;;;;;;5111543;28;20469;-60
2024/02/09 08:04:38;;;;;;;0.50;0.20;;;11.40;99.90;;;;;;5113684;28;20485;-59
2024/02/09 08:07:08;;;;;;;0.68;0.20;;;11.50;99.90;;;;;;5104019;28;20424;-59
2024/02/09 08:09:36;;;;;;;0.60;0.30;;;11.50;99.90;;;;;;5113861;28;20981;-60
2024/02/09 08:12:04;;;;;;;0.60;0.28;;;11.60;1.00;;;;;;5114474;28;20469;-58
2024/02/09 08:14:34;;;;;;;0.60;0.30;;;11.60;1.00;;;;;;5114605;28;20408;-58
2024/02/09 08:17:03;;;;;;;0.80;0.30;;;11.60;1.00;;;;;;5118574;28;20478;-59
2024/02/09 08:19:32;;;;;;;0.70;0.30;;;11.70;1.00;;;;;;5109996;28;20428;-58
2024/02/09 08:21:59;;;;;;;0.52;0.20;;;11.70;1.00;;;;;;5119003;28;20427;-59
2024/02/09 08:24:26;;;;;;;0.93;0.30;;;11.80;99.90;;;;;;5117877;28;20862;-59
2024/02/09 08:26:53;;;;;;;1.10;0.30;;;11.80;99.90;;;;;;5118251;28;20498;-59
2024/02/09 08:29:20;;;;;;;0.80;0.30;;;11.80;99.90;;;;;;5118584;28;20408;-59
2024/02/09 08:31:48;;;;;;;1.00;0.30;;;11.80;99.90;;;;;;5118621;28;20419;-59
2024/02/09 08:34:16;;;;;;;0.60;0.20;;;11.90;1.00;;;;;;5117779;28;20496;-59
2024/02/09 08:36:44;;;;;;;0.50;0.20;;;12.10;1.00;;;;;;5117354;28;20473;-59
2024/02/09 08:39:11;;;;;;;0.60;0.20;;;12.20;99.90;;;;;;5118185;28;20432;-58
2024/02/09 08:41:38;;;;;;;1.15;0.20;;;12.20;99.90;;;;;;5117827;28;20500;-59
2024/02/09 08:44:06;;;;;;;3.03;1.45;;;12.30;99.90;;;;;;5117443;28;20487;-58
2024/02/09 08:46:35;;;;;;;1.20;0.53;;;12.30;99.90;;;;;;5118304;28;20470;-59
2024/02/09 08:49:02;;;;;;;1.20;0.70;;;12.40;99.90;;;;;;5113324;27;20420;-59
2024/02/09 08:51:30;;;;;;;0.60;0.30;;;12.50;99.90;;;;;;5111883;28;20706;-58
2024/02/09 08:53:58;;;;;;;0.40;0.20;;;12.50;99.90;;;;;;5114754;28;20473;-58
2024/02/09 08:56:25;;;;;;;1.13;0.30;;;12.40;99.90;;;;;;5117370;28;20416;-58
2024/02/09 08:58:52;;;;;;;0.73;0.30;;;12.40;99.90;;;;;;5115081;28;20508;-58
2024/02/09 09:01:19;;;;;;;0.50;0.20;;;12.40;99.90;;;;;;5114555;28;20977;-58
2024/02/09 09:03:46;;;;;;;1.20;0.20;;;12.50;99.90;;;;;;5115100;28;20806;-58
2024/02/09 09:06:13;;;;;;;1.10;0.30;;;12.60;99.90;;;;;;5103241;28;20708;-59
2024/02/09 09:08:42;;;;;;;0.60;0.20;;;12.60;99.90;;;;;;5114880;28;20469;-59
2024/02/09 09:11:09;;;;;;;0.70;0.30;;;12.80;99.90;;;;;;5115995;28;20431;-58
2024/02/09 09:13:35;;;;;;;1.20;0.30;;;12.90;99.90;;;;;;5116125;28;20519;-59
2024/02/09 09:16:02;;;;;;;1.42;0.30;;;12.90;99.90;;;;;;5115942;28;20467;-59
2024/02/09 09:18:29;;;;;;;0.65;0.28;;;12.90;99.90;;;;;;5116388;28;20518;-60
2024/02/09 09:20:56;;;;;;;0.98;0.20;;;13.00;99.90;;;;;;5117119;28;20488;-59
2024/02/09 09:23:23;;;;;;;0.50;0.30;;;13.20;99.90;;;;;;5115310;28;20720;-59
2024/02/09 09:25:51;;;;;;;0.50;0.30;;;13.30;99.90;;;;;;5115771;28;20455;-59
2024/02/09 09:28:19;;;;;;;1.92;0.20;;;13.30;99.90;;;;;;5116009;28;20713;-58
2024/02/09 09:30:47;;;;;;;0.80;0.20;;;13.30;99.90;;;;;;5115386;28;20447;-58
2024/02/09 09:33:14;;;;;;;1.17;0.30;;;13.40;99.90;;;;;;5099056;28;20512;-59
2024/02/09 09:35:41;;;;;;;0.50;0.20;;;13.50;99.90;;;;;;5115678;28;20473;-59
2024/02/09 09:38:10;;;;;;;0.60;0.30;;;13.70;99.90;;;;;;5115928;28;20474;-58
2024/02/09 09:40:40;;;;;;;0.63;0.30;;;13.70;99.90;;;;;;5116267;28;20431;-59
2024/02/09 09:43:09;;;;;;;0.90;0.20;;;13.70;99.90;;;;;;5116621;28;20478;-58
2024/02/09 09:45:38;;;;;;;2.70;0.30;;;13.70;99.90;;;;;;5117506;28;20450;-59
2024/02/09 09:48:07;;;;;;;0.60;0.30;;;13.70;99.90;;;;;;5116477;28;20416;-59
2024/02/09 09:50:35;;;;;;;0.50;0.20;;;13.60;99.90;;;;;;5116213;28;20415;-59
2024/02/09 09:53:03;;;;;;;0.82;0.30;;;13.70;99.90;;;;;;5115954;28;20685;-59
2024/02/09 09:55:33;;;;;;;1.20;0.40;;;13.70;99.90;;;;;;5115534;28;20430;-58
2024/02/09 09:58:00;;;;;;;0.70;0.40;;;13.70;99.90;;;;;;5116175;28;20494;-59
2024/02/09 10:00:29;;;;;;;1.83;0.30;;;13.80;99.90;;;;;;5116812;27;20489;-59
2024/02/09 10:02:57;;;;;;;0.80;0.30;;;14.00;99.90;;;;;;5116892;27;20412;-59
2024/02/09 10:05:24;;;;;;;0.60;0.30;;;13.80;99.90;;;;;;5122627;27;20412;-59
2024/02/09 10:07:51;;;;;;;0.60;0.40;;;13.80;99.90;;;;;;5116404;28;20481;-60
2024/02/09 10:10:20;;;;;;;1.10;0.32;;;13.80;99.90;;;;;;5116848;28;20428;-60
2024/02/09 10:12:47;;;;;;;0.60;0.23;;;13.90;99.90;;;;;;5116081;28;20424;-59
2024/02/09 10:15:16;;;;;;;1.00;0.38;;;13.80;99.90;;;;;;5116639;27;20497;-59
2024/02/09 10:17:44;;;;;;;0.60;0.30;;;13.80;99.90;;;;;;5118925;27;20489;-59
2024/02/09 10:20:13;;;;;;;0.70;0.30;;;13.80;99.90;;;;;;5115432;28;20513;-58
2024/02/09 10:22:40;;;;;;;0.90;0.30;;;13.90;99.90;;;;;;5115786;28;20505;-59
2024/02/09 10:25:08;;;;;;;0.60;0.20;;;13.90;99.90;;;;;;5115179;27;20762;-59
2024/02/09 10:27:36;;;;;;;0.50;0.20;;;13.90;99.90;;;;;;5121710;27;20762;-59
2024/02/09 10:30:03;;;;;;;0.80;0.30;;;14.00;99.90;;;;;;5133506;27;20407;-60
2024/02/09 10:32:32;;;;;;;0.90;0.30;;;14.10;99.90;;;;;;5119619;27;20447;-59
2024/02/09 10:35:00;;;;;;;0.80;0.30;;;14.20;99.90;;;;;;5107072;28;20686;-59
2024/02/09 10:37:27;;;;;;;0.77;0.30;;;14.20;99.90;;;;;;5114604;28;20551;-59
2024/02/09 10:39:54;;;;;;;1.20;0.30;;;14.20;99.90;;;;;;5115063;28;20420;-59
2024/02/09 10:42:23;;;;;;;0.70;0.20;;;14.20;99.90;;;;;;5114347;28;20857;-59
2024/02/09 10:44:54;;;;;;;0.80;0.20;;;14.20;99.90;;;;;;5111865;28;20452;-59
2024/02/09 10:47:25;;;;;;;0.60;0.30;;;14.20;99.90;;;;;;5117788;27;20821;-59
2024/02/09 10:49:54;;;;;;;0.40;0.20;;;14.20;99.90;;;;;;5094310;28;20457;-59
2024/02/09 10:52:26;;;;;;;0.60;0.30;;;14.20;99.90;;;;;;5112205;28;20456;-58
2024/02/09 10:54:56;;;;;;;1.00;0.28;;;14.20;99.90;;;;;;5113532;28;20481;-59
2024/02/09 10:57:25;;;;;;;1.00;0.22;;;14.10;99.90;;;;;;5112669;28;20854;-60
2024/02/09 10:59:53;;;;;;;0.50;0.20;;;14.20;99.90;;;;;;5111598;28;20497;-59
2024/02/09 11:02:22;;;;;;;0.50;0.20;;;14.30;99.90;;;;;;5112929;28;20480;-59
2024/02/09 11:04:49;;;;;;;0.60;0.30;;;14.30;99.90;;;;;;5113229;28;20474;-59
2024/02/09 11:07:16;;;;;;;1.10;0.30;;;14.40;99.90;;;;;;5114285;28;20482;-58
2024/02/09 11:09:45;;;;;;;1.48;0.35;;;14.40;99.90;;;;;;5115705;28;20852;-59
2024/02/09 11:12:12;;;;;;;1.40;0.20;;;14.50;99.90;;;;;;5114393;28;20471;-58
2024/02/09 11:14:44;;;;;;;0.50;0.30;;;14.50;99.90;;;;;;5114919;28;20459;-59
2024/02/09 11:17:12;;;;;;;0.60;0.20;;;14.40;99.90;;;;;;5114465;28;20424;-59
2024/02/09 11:19:40;;;;;;;0.50;0.20;;;14.50;99.90;;;;;;5112841;28;20432;-59
2024/02/09 11:22:08;;;;;;;0.60;0.30;;;14.50;99.90;;;;;;5113529;28;20909;-59
2024/02/09 11:24:35;;;;;;;1.00;0.30;;;14.50;99.90;;;;;;5113565;28;20492;-59
2024/02/09 11:27:05;;;;;;;0.63;0.30;;;14.50;99.90;;;;;;5113216;28;20544;-59
2024/02/09 11:29:33;;;;;;;0.60;0.20;;;14.50;99.90;;;;;;5114988;28;20409;-58
2024/02/09 11:32:02;;;;;;;0.40;0.20;;;14.60;99.90;;;;;;5114082;28;20463;-59
2024/02/09 11:34:30;;;;;;;1.88;0.38;;;14.60;99.90;;;;;;5114319;28;20432;-59
2024/02/09 11:37:00;;;;;;;6.20;4.10;;;14.50;99.90;;;;;;5104124;28;20459;-59
2024/02/09 11:39:27;;;;;;;0.52;0.25;;;14.50;99.90;;;;;;5114121;28;20846;-59
2024/02/09 11:41:54;;;;;;;0.85;0.25;;;14.50;99.90;;;;;;5114750;28;21067;-59
2024/02/09 11:44:23;;;;;;;1.45;0.30;;;14.50;99.90;;;;;;5114648;28;20471;-59
2024/02/09 11:46:52;;;;;;;0.53;0.20;;;14.40;99.90;;;;;;5114831;28;20467;-60
2024/02/09 11:49:21;;;;;;;0.70;0.30;;;14.30;99.90;;;;;;5113435;28;20450;-60
2024/02/09 11:51:49;;;;;;;1.20;0.30;;;14.30;99.90;;;;;;5117119;28;20493;-59
2024/02/09 11:54:16;;;;;;;0.50;0.30;;;14.20;99.90;;;;;;5117037;28;20424;-60
2024/02/09 11:56:45;;;;;;;1.00;0.30;;;14.10;99.90;;;;;;5117553;28;20506;-59
2024/02/09 11:59:13;;;;;;;1.10;0.30;;;14.10;99.90;;;;;;5118689;28;20496;-60
2024/02/09 12:01:42;;;;;;;0.52;0.20;;;14.20;99.90;;;;;;5116989;28;20416;-59
2024/02/09 12:04:09;;;;;;;1.00;0.30;;;14.30;99.90;;;;;;5118538;28;20655;-59
2024/02/09 12:06:38;;;;;;;1.90;0.30;;;14.20;99.90;;;;;;5116356;28;20845;-59
2024/02/09 12:09:06;;;;;;;1.20;0.30;;;14.20;99.90;;;;;;5115941;28;20430;-59
2024/02/09 12:11:33;;;;;;;0.40;0.20;;;14.20;99.90;;;;;;5116421;28;20510;-60
2024/02/09 12:14:00;;;;;;;0.40;0.20;;;14.20;99.90;;;;;;5116778;28;20457;-60
2024/02/09 12:16:28;;;;;;;0.70;0.30;;;14.20;99.90;;;;;;5117202;28;20548;-59
2024/02/09 12:18:58;;;;;;;0.50;0.20;;;14.10;99.90;;;;;;5116696;28;20464;-59
2024/02/09 12:21:26;;;;;;;0.90;0.30;;;14.10;99.90;;;;;;5118291;28;20828;-59
2024/02/09 12:23:53;;;;;;;0.80;0.20;;;14.00;99.90;;;;;;5117144;28;20426;-59
2024/02/09 12:26:21;;;;;;;0.80;0.30;;;14.00;99.90;;;;;;5115705;28;20447;-58
2024/02/09 12:28:48;;;;;;;0.80;0.40;;;14.00;99.90;;;;;;5118032;28;20463;-59
2024/02/09 12:31:17;;;;;;;1.67;0.30;;;14.00;99.90;;;;;;5118685;28;20431;-59
2024/02/09 12:33:44;;;;;;;0.80;0.20;;;14.00;1.00;;;;;;5116111;28;20519;-59
2024/02/09 12:36:15;;;;;;;0.80;0.30;;;13.80;1.00;;;;;;5117549;28;20424;-59
2024/02/09 12:38:42;;;;;;;0.70;0.30;;;13.80;1.00;;;;;;5117270;28;20785;-59
2024/02/09 12:41:09;;;;;;;0.70;0.30;;;13.80;1.00;;;;;;5116606;28;20726;-59
2024/02/09 12:43:36;;;;;;;0.90;0.22;;;13.70;99.90;;;;;;5114734;28;20741;-59
2024/02/09 12:46:06;;;;;;;0.60;0.20;;;13.70;1.00;;;;;;5114895;28;20508;-59
2024/02/09 12:48:36;;;;;;;0.70;0.30;;;13.70;99.90;;;;;;5115371;28;20519;-59
2024/02/09 12:51:05;;;;;;;1.10;0.30;;;13.70;99.90;;;;;;5110690;28;20488;-60
2024/02/09 12:53:34;;;;;;;1.10;0.28;;;13.60;1.00;;;;;;5111591;28;20523;-59
2024/02/09 12:56:02;;;;;;;1.50;0.60;;;13.60;99.90;;;;;;5116306;28;20428;-59
2024/02/09 12:58:30;;;;;;;0.60;0.30;;;13.60;1.00;;;;;;5115784;28;20546;-59
2024/02/09 13:00:57;;;;;;;1.30;0.30;;;13.70;99.90;;;;;;5116609;28;20816;-59
2024/02/09 13:03:26;;;;;;;0.60;0.30;;;13.60;99.90;;;;;;5117341;28;20508;-59
2024/02/09 13:05:53;;;;;;;0.98;0.20;;;13.50;99.90;;;;;;5117504;28;20423;-59
2024/02/09 13:08:21;;;;;;;0.50;0.30;;;13.50;99.90;;;;;;5116964;28;20416;-59
2024/02/09 13:10:50;;;;;;;1.60;0.30;;;13.40;1.00;;;;;;5116642;28;20534;-60
2024/02/09 13:13:18;;;;;;;0.60;0.30;;;13.40;99.90;;;;;;5116276;28;20467;-59
2024/02/09 13:15:45;;;;;;;0.70;0.30;;;13.40;1.00;;;;;;5116191;28;20836;-59
2024/02/09 13:18:12;;;;;;;0.73;0.30;;;13.40;1.00;;;;;;5116137;28;20443;-60
2024/02/09 13:20:41;;;;;;;0.60;0.30;;;13.40;1.00;;;;;;5116962;28;20459;-59
2024/02/09 13:23:08;;;;;;;0.50;0.20;;;13.40;1.00;;;;;;5114226;28;20419;-59
2024/02/09 13:25:35;;;;;;;1.20;0.30;;;13.40;1.00;;;;;;5116979;28;20470;-60
2024/02/09 13:28:06;;;;;;;0.60;0.30;;;13.40;1.00;;;;;;5117594;28;20434;-59
2024/02/09 13:30:33;;;;;;;1.00;0.30;;;13.40;1.00;;;;;;5117409;28;20431;-59
2024/02/09 13:33:00;;;;;;;0.55;0.30;;;13.40;1.00;;;;;;5115412;28;20417;-60
2024/02/09 13:35:28;;;;;;;0.80;0.40;;;13.50;1.00;;;;;;5117533;28;20731;-58
2024/02/09 13:37:55;;;;;;;0.40;0.20;;;13.50;1.00;;;;;;5116140;28;20757;-58
2024/02/09 13:40:23;;;;;;;0.50;0.28;;;13.60;99.90;;;;;;5116806;28;20648;-58
2024/02/09 13:42:51;;;;;;;0.60;0.30;;;13.60;1.00;;;;;;5116814;28;20428;-58
2024/02/09 13:45:25;;;;;;;0.68;0.35;;;13.60;1.00;;;;;;5116739;28;20518;-58
2024/02/09 13:47:52;;;;;;;0.60;0.40;;;13.50;43.20;;;;;;5116738;28;20465;-58
2024/02/09 13:50:23;;;;;;;1.10;0.30;;;13.50;56.30;;;;;;5116114;28;20903;-57
2024/02/09 13:52:52;;;;;;;0.70;0.30;;;13.60;1.00;;;;;;5115218;28;20424;-57
2024/02/09 13:55:21;;;;;;;1.67;0.30;;;13.70;99.90;;;;;;5115745;27;20815;-57
2024/02/09 13:57:50;;;;;;;1.25;0.30;;;13.70;1.00;;;;;;5115412;28;20694;-57
2024/02/09 14:00:21;;;;;;;0.50;0.30;;;13.70;1.00;;;;;;5114596;28;20439;-57
2024/02/09 14:02:48;;;;;;;0.55;0.30;;;13.70;99.90;;;;;;5114393;28;20431;-57
2024/02/09 14:05:16;;;;;;;0.70;0.30;;;13.70;1.00;;;;;;5114424;28;20813;-58
2024/02/09 14:07:46;;;;;;;1.08;0.30;;;13.70;99.90;;;;;;5115094;28;20456;-57
2024/02/09 14:10:14;;;;;;;0.70;0.30;;;13.70;1.00;;;;;;5115928;28;20752;-59
2024/02/09 14:12:41;;;;;;;0.70;0.30;;;13.80;19.60;;;;;;5114070;28;20432;-59
2024/02/09 14:15:10;;;;;;;0.50;0.30;;;13.80;1.00;;;;;;5116240;28;20478;-59
2024/02/09 14:17:39;;;;;;;0.65;0.30;;;13.80;1.40;;;;;;5116328;28;20633;-58
2024/02/09 14:20:07;;;;;;;0.50;0.20;;;13.80;1.00;;;;;;5115995;28;20440;-59
2024/02/09 14:22:34;;;;;;;0.70;0.30;;;13.90;99.90;;;;;;5115281;28;20531;-59
2024/02/09 14:25:02;;;;;;;0.80;0.30;;;13.80;19.60;;;;;;5115045;27;20426;-59
2024/02/09 14:27:29;;;;;;;1.90;0.40;;;13.80;99.90;;;;;;5115845;28;20740;-59
2024/02/09 14:29:58;;;;;;;1.60;0.30;;;13.80;1.00;;;;;;5116297;28;20480;-59
2024/02/09 14:32:24;;;;;;;1.52;0.40;;;13.80;1.00;;;;;;5115255;28;20837;-59
2024/02/09 14:34:53;;;;;;;2.20;0.73;;;13.70;1.00;;;;;;5115185;28;20531;-59
2024/02/09 14:37:21;;;;;;;0.98;0.30;;;13.70;1.00;;;;;;5114157;28;20464;-59
2024/02/09 14:39:51;;;;;;;0.50;0.30;;;13.70;99.90;;;;;;5111804;28;20446;-58